Bor, Russia
Current Conditions -  °F | °C
As of 5:00 PM on Tuesday 27 Jan 2015 (Local Time) from UNKL Reporting Station
Snow Showers Snow Showers  
Wind Chill: -11°   Ceiling: 8300
Heat Index:   Visibility: 2.7mi
Dew Point: -6°   Wind: 9mph
Humidity: 66%   Direction: 210°SSW
Pressure: 30.3"   Gusts: 20mph
Location:  61.6°N, 90.02°E
Report Text: UNKL 271000Z 21004G09MPS 170V250 4400 -SHSN SCT030CB OVC083M16/M21 Q1026 NOSIG RMK QFE743 29////65
Loading
Personal Weather Stations






























Interactive Weather Map New forecast layout! Learn more

10-Day Weather Forecast

Advertisements
Track Severe Weather on mobile